Time;durP1;ratioP1;P1;durP2;ratioP2;P2;SDS_P1;SDS_P2;PMS_P1;PMS_P2;Temp;Humidity;BMP_temperature;BMP_pressure;BME280_temperature;BME280_humidity;BME280_pressure;Samples;Min_cycle;Max_cycle;Signal;HPM_P1;HPM_P2
2021/01/11 00:00:22;;;;;;;;;56.00;42.25;;;;;-1.57;86.21;100164.63;5016481;28;8867;-59
2021/01/11 00:02:53;;;;;;;;;74.00;51.00;;;;;-1.63;86.18;100154.13;5021921;28;8888;-60
2021/01/11 00:05:20;;;;;;;;;71.25;48.00;;;;;-1.43;85.74;100155.78;5016423;28;8840;-60
2021/01/11 00:07:47;;;;;;;;;79.00;48.50;;;;;-1.43;85.23;100155.78;5025464;28;8840;-60
2021/01/11 00:10:15;;;;;;;;;61.00;47.25;;;;;-1.43;85.05;100161.03;5018379;28;8819;-59
2021/01/11 00:12:45;;;;;;;;;63.75;46.50;;;;;-1.41;84.86;100157.53;5036093;28;8831;-59
2021/01/11 00:15:15;;;;;;;;;51.75;33.50;;;;;-1.54;85.70;100158.47;5022236;28;8828;-59
2021/01/11 00:17:43;;;;;;;;;62.00;46.25;;;;;-1.58;85.73;100152.34;5025219;28;8872;-59
2021/01/11 00:20:12;;;;;;;;;60.50;45.00;;;;;-1.54;85.31;100147.94;5019366;28;8870;-59
2021/01/11 00:22:43;;;;;;;;;77.50;56.25;;;;;-1.44;85.56;100148.78;5035990;28;8879;-59
2021/01/11 00:25:12;;;;;;;;;53.25;43.50;;;;;-1.53;85.43;100148.81;5020981;28;8870;-60
2021/01/11 00:27:41;;;;;;;;;65.25;43.00;;;;;-1.43;85.58;100148.75;5031801;28;8901;-60
2021/01/11 00:30:10;;;;;;;;;69.00;47.50;;;;;-1.43;84.97;100156.66;5022292;28;8828;-59
2021/01/11 00:32:39;;;;;;;;;72.50;45.50;;;;;-1.50;84.99;100151.41;5020088;28;8835;-59
2021/01/11 00:35:07;;;;;;;;;72.75;52.00;;;;;-1.58;85.09;100147.09;5016458;28;8835;-60
2021/01/11 00:37:35;;;;;;;;;70.00;45.00;;;;;-1.61;85.28;100148.84;5012158;28;9608;-60
2021/01/11 00:40:06;;;;;;;;;51.25;42.75;;;;;-1.68;85.72;100150.66;5025399;28;8840;-59
2021/01/11 00:42:35;;;;;;;;;63.50;45.25;;;;;-1.59;85.48;100150.59;5014003;28;8835;-60
2021/01/11 00:45:06;;;;;;;;;70.25;49.00;;;;;-1.71;85.49;100155.94;5011732;28;8865;-60
2021/01/11 00:47:39;;;;;;;;;55.75;35.50;;;;;-1.63;84.90;100159.41;5015398;28;9601;-60
2021/01/11 00:50:07;;;;;;;;;57.50;42.00;;;;;-1.92;86.02;100162.16;5031872;28;8831;-61
2021/01/11 00:52:38;;;;;;;;;66.75;48.50;;;;;-1.75;85.72;100154.19;5021339;28;8828;-59
2021/01/11 00:55:08;;;;;;;;;61.25;45.25;;;;;-1.70;85.34;100157.66;5020415;28;8873;-59
2021/01/11 00:57:37;;;;;;;;;54.50;39.25;;;;;-1.88;85.55;100166.50;5020774;28;9653;-59
2021/01/11 01:00:10;;;;;;;;;64.75;45.50;;;;;-1.67;85.04;100157.66;5014369;28;8882;-60
2021/01/11 01:02:37;;;;;;;;;58.00;42.50;;;;;-1.77;85.56;100154.16;5020615;28;8831;-59
2021/01/11 01:05:10;;;;;;;;;61.50;45.00;;;;;-1.80;85.07;100161.22;5019996;28;8830;-60
2021/01/11 01:07:42;;;;;;;;;54.50;42.50;;;;;-1.86;84.79;100153.34;5026967;28;8867;-60
2021/01/11 01:10:13;;;;;;;;;50.50;37.75;;;;;-1.85;84.94;100152.47;5030785;28;8851;-59
2021/01/11 01:12:41;;;;;;;;;55.75;38.00;;;;;-2.05;86.40;100160.44;5024867;28;8873;-60
2021/01/11 01:15:10;;;;;;;;;66.75;45.50;;;;;-1.86;84.73;100162.13;5036426;28;8831;-59
2021/01/11 01:17:38;;;;;;;;;55.75;40.25;;;;;-1.86;84.80;100156.84;5037099;28;8894;-59
2021/01/11 01:20:17;;;;;;;;;61.00;48.50;;;;;-1.94;85.02;100160.41;5043717;28;8837;-59
2021/01/11 01:22:49;;;;;;;;;52.25;40.50;;;;;-2.07;85.05;100152.53;5020941;28;8830;-59
2021/01/11 01:25:17;;;;;;;;;46.50;36.75;;;;;-1.88;84.88;100152.47;5031806;28;8865;-59
2021/01/11 01:27:45;;;;;;;;;47.25;29.50;;;;;-1.87;84.39;100154.22;5023252;28;8860;-60
2021/01/11 01:30:13;;;;;;;;;68.75;43.50;;;;;-1.90;84.26;100154.22;5020214;28;8946;-60
2021/01/11 01:32:40;;;;;;;;;57.00;39.00;;;;;-2.01;84.68;100152.50;5019024;28;8840;-60
2021/01/11 01:35:11;;;;;;;;;50.00;33.75;;;;;-2.16;85.32;100151.66;5020389;28;8938;-59
2021/01/11 01:37:38;;;;;;;;;58.75;39.50;;;;;-2.17;85.17;100144.69;5021275;28;8862;-60
2021/01/11 01:40:07;;;;;;;;;49.75;37.50;;;;;-2.15;85.41;100142.91;5023510;28;8836;-59
2021/01/11 01:42:34;;;;;;;;;56.25;45.25;;;;;-2.14;85.31;100132.38;5023817;28;10077;-59
2021/01/11 01:45:03;;;;;;;;;50.50;36.00;;;;;-2.11;85.23;100139.38;5018440;28;8832;-61
2021/01/11 01:47:31;;;;;;;;;57.25;40.00;;;;;-2.21;85.57;100141.19;5019010;28;8847;-61
2021/01/11 01:50:04;;;;;;;;;62.75;44.00;;;;;-2.14;85.33;100137.63;5032095;28;8878;-59
2021/01/11 01:52:31;;;;;;;;;65.25;46.50;;;;;-2.15;85.06;100137.66;5021633;28;8918;-60
2021/01/11 01:54:59;;;;;;;;;69.25;45.00;;;;;-2.27;85.40;100128.03;5039433;28;8832;-59
2021/01/11 01:57:26;;;;;;;;;51.50;39.75;;;;;-2.24;85.48;100135.91;5035069;28;9533;-60
2021/01/11 01:59:53;;;;;;;;;53.00;41.25;;;;;-2.24;85.38;100133.28;5015932;28;8856;-59
2021/01/11 02:02:21;;;;;;;;;53.50;41.75;;;;;-2.23;85.14;100130.66;5022875;28;8863;-59
2021/01/11 02:04:48;;;;;;;;;61.00;44.00;;;;;-2.17;84.76;100135.03;5020924;28;8823;-60
2021/01/11 02:07:37;;;;;;;;;67.25;44.50;;;;;-2.25;85.07;100126.28;5023448;28;8874;-59
2021/01/11 02:10:23;;;;;;;;;58.25;40.75;;;;;-2.38;85.30;100127.19;5020598;28;8852;-60
2021/01/11 02:13:08;;;;;;;;;54.25;43.00;;;;;-2.49;85.28;100133.34;5017423;28;8877;-60
2021/01/11 02:15:50;;;;;;;;;63.25;48.00;;;;;-2.32;85.23;100129.78;5016011;28;8885;-60
2021/01/11 02:18:46;;;;;;;;;63.25;45.25;;;;;-2.50;85.66;100121.09;5035414;28;8849;-60
2021/01/11 02:22:05;;;;;;;;;72.00;44.50;;;;;-2.54;86.04;100121.94;5028488;28;8831;-60
2021/01/11 02:25:19;;;;;;;;;37.00;34.50;;;;;-2.59;86.21;100117.59;5024354;28;8836;-60
2021/01/11 02:27:52;;;;;;;;;52.75;29.75;;;;;-2.44;86.44;100118.44;5023449;28;8867;-60
2021/01/11 02:30:36;;;;;;;;;60.50;46.00;;;;;-2.61;85.96;100108.81;5017971;28;8826;-58
2021/01/11 02:33:11;;;;;;;;;58.00;39.75;;;;;-2.79;86.44;100112.34;5042056;28;8949;-60
2021/01/11 02:36:08;;;;;;;;;63.25;45.00;;;;;-2.70;87.34;100107.09;5038883;28;8869;-59
2021/01/11 02:38:37;;;;;;;;;61.00;42.75;;;;;-2.70;86.96;100112.34;5022795;28;8878;-60
2021/01/11 02:41:05;;;;;;;;;55.25;33.00;;;;;-2.80;87.49;100111.47;5015117;28;8839;-59
2021/01/11 02:43:32;;;;;;;;;51.25;34.50;;;;;-2.92;87.24;100107.09;5022555;28;8851;-59
2021/01/11 02:45:59;;;;;;;;;48.00;33.75;;;;;-2.80;87.51;100106.22;5026266;28;8852;-58
2021/01/11 02:48:43;;;;;;;;;58.25;38.25;;;;;-2.72;87.17;100116.72;5022654;28;8846;-61
2021/01/11 02:51:26;;;;;;;;;53.25;41.75;;;;;-2.79;86.76;100112.34;5014327;28;8967;-59
2021/01/11 02:54:22;;;;;;;;;60.50;41.75;;;;;-2.78;86.99;100117.59;5014618;28;8932;-59
2021/01/11 02:57:23;;;;;;;;;64.00;42.00;;;;;-2.83;86.75;100115.84;5038004;28;8869;-58
2021/01/11 03:00:04;;;;;;;;;58.50;37.25;;;;;-3.03;87.96;100119.34;5031536;28;8858;-59
2021/01/11 03:02:36;;;;;;;;;67.00;44.75;;;;;-2.98;88.08;100130.72;5023383;28;8922;-59
2021/01/11 03:05:04;;;;;;;;;57.00;33.50;;;;;-3.22;88.17;100122.84;5037011;28;8848;-59
2021/01/11 03:07:31;;;;;;;;;60.25;40.25;;;;;-3.21;88.85;100125.47;5035999;28;8960;-59
2021/01/11 03:09:59;;;;;;;;;71.25;45.25;;;;;-3.05;88.02;100123.75;5024864;28;8848;-59
2021/01/11 03:12:27;;;;;;;;;68.75;48.00;;;;;-3.15;87.79;100122.84;5020329;28;8943;-59
2021/01/11 03:14:54;;;;;;;;;72.75;49.00;;;;;-3.04;87.59;100125.47;5024319;28;9694;-60
2021/01/11 03:17:21;;;;;;;;;51.50;38.75;;;;;-3.11;87.24;100124.63;5022085;28;8845;-60
2021/01/11 03:19:48;;;;;;;;;46.75;36.00;;;;;-3.04;87.67;100120.22;5017761;28;8880;-59
2021/01/11 03:22:15;;;;;;;;;60.50;39.75;;;;;-3.07;87.33;100122.84;5018055;28;8832;-60
2021/01/11 03:24:44;;;;;;;;;63.50;38.75;;;;;-3.18;87.29;100116.72;5025888;28;8851;-60
2021/01/11 03:27:11;;;;;;;;;78.00;52.50;;;;;-3.19;87.90;100128.09;5015898;28;9580;-59
2021/01/11 03:29:38;;;;;;;;;89.25;57.00;;;;;-3.02;87.35;100126.34;5037958;28;8843;-59
2021/01/11 03:32:05;;;;;;;;;88.75;58.75;;;;;-3.08;87.60;100121.13;5015879;28;8827;-59
2021/01/11 03:34:32;;;;;;;;;68.75;45.00;;;;;-3.09;87.67;100125.47;5021883;28;8885;-59
2021/01/11 03:36:59;;;;;;;;;218.00;178.25;;;;;-3.17;88.32;100126.34;5021936;28;8829;-60
2021/01/11 03:39:26;;;;;;;;;94.75;71.00;;;;;-3.19;88.37;100123.69;5014072;28;8831;-60
2021/01/11 03:41:53;;;;;;;;;94.00;64.75;;;;;-3.21;88.32;100120.22;5014360;28;8843;-60
2021/01/11 03:44:20;;;;;;;;;90.00;69.25;;;;;-3.22;88.18;100122.84;5020506;28;8855;-59
2021/01/11 03:46:47;;;;;;;;;82.00;59.50;;;;;-3.23;87.94;100113.22;5021830;28;8893;-57
2021/01/11 03:49:14;;;;;;;;;56.50;38.75;;;;;-3.09;87.52;100124.59;5014671;28;8831;-60
2021/01/11 03:51:41;;;;;;;;;64.75;44.50;;;;;-3.00;86.63;100119.38;5013999;28;8865;-60
2021/01/11 03:54:08;;;;;;;;;61.50;40.50;;;;;-3.22;87.32;100117.59;4999793;28;8831;-59
2021/01/11 03:56:35;;;;;;;;;72.25;47.50;;;;;-3.17;87.46;100123.72;4994539;28;8879;-59
2021/01/11 03:59:02;;;;;;;;;67.00;48.00;;;;;-3.14;87.40;100121.09;4995020;28;8865;-59
2021/01/11 04:01:29;;;;;;;;;71.50;49.50;;;;;-3.08;86.75;100121.13;5007820;28;8847;-62
2021/01/11 04:03:56;;;;;;;;;66.00;46.25;;;;;-2.99;87.39;100123.72;5023676;28;8821;-61
2021/01/11 04:06:23;;;;;;;;;77.00;53.00;;;;;-3.10;86.70;100118.47;5033547;28;9704;-60
2021/01/11 04:08:50;;;;;;;;;58.00;42.50;;;;;-3.10;86.82;100128.09;5012831;28;8960;-60
2021/01/11 04:11:23;;;;;;;;;67.00;46.00;;;;;-3.15;86.97;100127.22;4994322;28;8849;-59
2021/01/11 04:13:50;;;;;;;;;64.00;41.50;;;;;-3.23;86.87;100127.22;4994827;28;8944;-61
2021/01/11 04:16:18;;;;;;;;;46.75;34.00;;;;;-2.95;87.19;100122.88;5010319;28;8841;-61
2021/01/11 04:18:46;;;;;;;;;57.50;37.25;;;;;-3.05;86.55;100131.63;5014109;28;8855;-61
2021/01/11 04:21:13;;;;;;;;;48.00;32.00;;;;;-3.13;86.46;100123.72;5029435;28;8981;-61
2021/01/11 04:23:41;;;;;;;;;54.25;37.25;;;;;-3.02;87.06;100129.00;5028908;28;8877;-60
2021/01/11 04:26:09;;;;;;;;;49.00;37.50;;;;;-3.20;87.21;100126.34;5012508;28;8843;-61
2021/01/11 04:28:36;;;;;;;;;52.00;37.00;;;;;-3.15;87.08;100124.59;5030513;28;8843;-60
2021/01/11 04:31:05;;;;;;;;;63.50;45.00;;;;;-3.11;86.83;100121.09;5019604;28;8852;-60
2021/01/11 04:33:32;;;;;;;;;55.00;44.75;;;;;-3.02;86.71;100128.13;5033833;28;8836;-60
2021/01/11 04:36:00;;;;;;;;;57.25;40.25;;;;;-3.16;87.15;100128.09;5035957;28;8839;-59
2021/01/11 04:38:27;;;;;;;;;59.25;44.00;;;;;-3.05;86.64;100128.09;5028822;28;8873;-61
2021/01/11 04:41:03;;;;;;;;;68.00;48.00;;;;;-3.06;86.70;100129.84;5012481;28;8835;-60
2021/01/11 04:43:36;;;;;;;;;63.50;45.25;;;;;-3.11;86.51;100128.97;4994132;28;8861;-61
2021/01/11 04:46:03;;;;;;;;;81.75;54.25;;;;;-3.17;87.13;100126.34;5009260;28;8850;-59
2021/01/11 04:48:32;;;;;;;;;76.50;52.00;;;;;-3.16;86.79;100123.72;4994048;28;8857;-58
2021/01/11 04:51:02;;;;;;;;;72.75;52.50;;;;;-3.32;87.18;100138.59;4993943;28;8833;-58
2021/01/11 04:53:29;;;;;;;;;70.50;49.00;;;;;-3.05;86.69;100133.34;5009466;28;8892;-60
2021/01/11 04:55:59;;;;;;;;;75.75;47.25;;;;;-3.48;87.71;100133.28;4993190;28;8825;-59
2021/01/11 04:58:46;;;;;;;;;53.50;39.50;;;;;-3.43;87.32;100148.16;5009503;28;8935;-59
2021/01/11 05:01:14;;;;;;;;;74.50;47.00;;;;;-3.16;86.96;100135.97;5008786;28;8867;-59
2021/01/11 05:03:41;;;;;;;;;67.75;47.00;;;;;-3.21;87.30;100135.97;5009450;28;8984;-59
2021/01/11 05:06:09;;;;;;;;;59.00;42.00;;;;;-3.19;86.54;100131.56;4992843;28;8849;-60
2021/01/11 05:08:36;;;;;;;;;67.50;47.00;;;;;-3.40;87.29;100140.28;5009232;28;8869;-60
2021/01/11 05:11:03;;;;;;;;;62.50;41.75;;;;;-3.28;87.36;100138.59;4992810;28;8865;-58
2021/01/11 05:13:30;;;;;;;;;72.75;48.25;;;;;-3.26;86.15;100127.22;4993039;28;8837;-60
2021/01/11 05:16:11;;;;;;;;;70.75;41.00;;;;;-3.18;86.75;100137.72;4993451;28;8856;-59
2021/01/11 05:18:38;;;;;;;;;58.75;42.50;;;;;-3.37;87.14;100139.41;4993671;28;8957;-59
2021/01/11 05:21:09;;;;;;;;;71.00;43.25;;;;;-3.20;86.72;100126.34;4993640;28;8881;-58
2021/01/11 05:23:38;;;;;;;;;68.25;45.00;;;;;-3.29;86.00;100134.19;4993826;28;8845;-59
2021/01/11 05:26:15;;;;;;;;;56.50;39.75;;;;;-3.43;86.34;100129.78;4993459;28;8960;-59
2021/01/11 05:28:43;;;;;;;;;53.25;38.25;;;;;-3.23;86.05;100128.97;4993509;28;8856;-59
2021/01/11 05:31:10;;;;;;;;;66.00;47.50;;;;;-3.26;86.16;100126.34;4993913;28;8931;-59
2021/01/11 05:33:53;;;;;;;;;62.75;42.75;;;;;-3.21;86.70;100129.81;4993189;28;9571;-59
2021/01/11 05:36:23;;;;;;;;;55.75;41.50;;;;;-3.45;86.37;100138.53;5008660;28;8850;-59
2021/01/11 05:38:50;;;;;;;;;50.50;39.25;;;;;-3.37;86.35;100132.44;4992973;28;8854;-58
2021/01/11 05:41:23;;;;;;;;;71.25;47.25;;;;;-3.36;86.02;100146.44;5011511;28;8839;-58
2021/01/11 05:44:15;;;;;;;;;65.75;46.75;;;;;-3.17;85.67;100134.22;5012944;28;8885;-58
2021/01/11 05:46:45;;;;;;;;;81.75;58.75;;;;;-3.19;85.19;100136.84;5012643;28;8831;-58
2021/01/11 05:49:14;;;;;;;;;69.50;51.25;;;;;-3.39;85.62;100136.81;5013264;28;8854;-59
2021/01/11 05:51:42;;;;;;;;;73.00;50.25;;;;;-3.26;85.71;100140.34;5016307;28;8875;-58
2021/01/11 05:54:26;;;;;;;;;49.75;39.25;;;;;-3.23;85.66;100136.84;5017228;28;8847;-58
2021/01/11 05:56:56;;;;;;;;;56.50;34.50;;;;;-3.21;85.49;100135.97;5016873;28;8835;-58
2021/01/11 05:59:24;;;;;;;;;46.00;30.50;;;;;-3.35;85.85;100132.44;5017060;28;8986;-59
2021/01/11 06:01:59;;;;;;;;;63.50;37.50;;;;;-3.47;86.12;100137.69;5032327;28;8839;-58
2021/01/11 06:04:29;;;;;;;;;61.75;46.50;;;;;-3.37;86.37;100140.31;5017151;28;8835;-58
2021/01/11 06:06:56;;;;;;;;;74.25;51.00;;;;;-3.35;85.90;100146.44;5015636;28;8870;-58
2021/01/11 06:09:24;;;;;;;;;71.25;49.00;;;;;-3.25;85.74;100139.47;5031796;28;8855;-58
2021/01/11 06:11:53;;;;;;;;;67.25;50.50;;;;;-3.32;85.77;100141.22;5016425;28;8827;-60
2021/01/11 06:14:20;;;;;;;;;69.50;51.00;;;;;-3.47;85.48;100148.19;5032436;28;8869;-58
2021/01/11 06:16:47;;;;;;;;;53.50;42.75;;;;;-3.24;85.54;100145.56;5016039;28;9001;-59
2021/01/11 06:19:14;;;;;;;;;69.00;38.25;;;;;-3.31;85.15;100150.81;5015152;28;8977;-58
2021/01/11 06:21:50;;;;;;;;;68.75;39.75;;;;;-3.24;84.67;100153.47;5032260;28;8863;-58
2021/01/11 06:24:19;;;;;;;;;64.50;43.00;;;;;-3.37;85.12;100155.19;5016337;28;8830;-58
2021/01/11 06:26:47;;;;;;;;;72.25;45.00;;;;;-3.17;84.77;100152.59;5015195;28;8838;-58
2021/01/11 06:29:31;;;;;;;;;67.00;50.00;;;;;-3.36;84.94;100162.19;5031768;28;8901;-58
2021/01/11 06:32:18;;;;;;;;;69.25;45.00;;;;;-3.35;85.64;100164.81;5015053;28;8925;-58
2021/01/11 06:34:45;;;;;;;;;70.50;53.00;;;;;-3.30;84.66;100167.44;5015997;28;8875;-57
2021/01/11 06:37:24;;;;;;;;;72.25;52.00;;;;;-3.40;85.85;100171.78;5015135;28;8871;-58
2021/01/11 06:39:57;;;;;;;;;68.25;44.75;;;;;-3.34;84.81;100166.56;5016130;28;8858;-57
2021/01/11 06:42:24;;;;;;;;;49.75;35.75;;;;;-3.36;84.69;100168.31;5011469;28;8853;-58
2021/01/11 06:44:52;;;;;;;;;66.50;48.50;;;;;-3.13;83.92;100168.38;4996309;28;8822;-57
2021/01/11 06:47:30;;;;;;;;;63.50;50.25;;;;;-3.36;84.27;100168.31;5011397;28;9028;-58
2021/01/11 06:50:07;;;;;;;;;77.25;53.75;;;;;-3.37;84.65;100171.81;4996882;28;9705;-58
2021/01/11 06:52:37;;;;;;;;;63.00;49.75;;;;;-3.18;84.35;100175.38;4996073;28;8860;-58
2021/01/11 06:55:18;;;;;;;;;69.00;47.50;;;;;-3.26;84.02;100178.84;4996224;28;8857;-59
2021/01/11 06:57:51;;;;;;;;;76.75;50.75;;;;;-3.24;83.88;100175.34;5010763;28;8865;-59
2021/01/11 07:00:19;;;;;;;;;57.00;44.50;;;;;-3.15;83.69;100167.50;4996189;28;8861;-59
2021/01/11 07:02:46;;;;;;;;;68.00;46.50;;;;;-3.14;84.71;100168.34;5010962;28;8880;-58
2021/01/11 07:05:35;;;;;;;;;55.25;38.00;;;;;-3.19;83.89;100180.59;4996059;28;8837;-59
2021/01/11 07:08:04;;;;;;;;;63.50;47.50;;;;;-3.02;84.03;100165.75;4995934;28;8920;-58
2021/01/11 07:10:31;;;;;;;;;72.00;48.00;;;;;-3.17;83.76;100163.97;4995609;28;8888;-57
2021/01/11 07:13:20;;;;;;;;;80.75;54.00;;;;;-3.12;83.94;100170.13;4995497;28;8853;-59
2021/01/11 07:16:10;;;;;;;;;59.50;44.00;;;;;-2.98;83.52;100164.88;4996081;28;8872;-58
2021/01/11 07:18:38;;;;;;;;;81.50;58.50;;;;;-2.97;83.61;100171.03;4995174;28;9635;-57
2021/01/11 07:21:25;;;;;;;;;78.50;50.25;;;;;-3.04;83.44;100162.25;4995409;28;8869;-59
2021/01/11 07:23:55;;;;;;;;;69.00;48.75;;;;;-2.97;83.12;100165.78;4995788;28;8837;-59
2021/01/11 07:26:27;;;;;;;;;67.75;53.00;;;;;-2.99;83.19;100167.50;4995573;28;8868;-59
2021/01/11 07:29:03;;;;;;;;;71.50;47.75;;;;;-2.98;82.61;100169.25;4995531;28;8851;-58
2021/01/11 07:31:38;;;;;;;;;96.00;69.00;;;;;-3.00;83.28;100166.66;5010580;28;8861;-58
2021/01/11 07:34:17;;;;;;;;;79.50;63.00;;;;;-2.65;82.80;100168.41;4995512;28;8845;-58
2021/01/11 07:36:50;;;;;;;;;84.75;54.00;;;;;-2.91;82.49;100163.13;4994372;28;8888;-57
2021/01/11 07:39:24;;;;;;;;;54.33;40.00;;;;;-2.81;82.11;100170.16;5010991;28;8857;-59
2021/01/11 07:42:04;;;;;;;;;51.25;34.25;;;;;-2.63;81.88;100171.91;5003007;28;8827;-58
2021/01/11 07:44:41;;;;;;;;;62.00;45.75;;;;;-2.66;82.31;100171.88;5013871;28;8851;-58
2021/01/11 07:47:13;;;;;;;;;70.75;47.00;;;;;-2.79;82.10;100175.38;5014510;28;8851;-59
2021/01/11 07:49:49;;;;;;;;;63.25;45.25;;;;;-2.64;83.12;100172.78;5014036;28;8831;-60
2021/01/11 07:52:21;;;;;;;;;82.50;53.00;;;;;-2.66;82.51;100172.78;5014625;28;8889;-59
2021/01/11 07:55:08;;;;;;;;;77.00;51.50;;;;;-2.55;82.46;100170.16;4994465;28;8955;-58
2021/01/11 07:57:35;;;;;;;;;68.00;44.00;;;;;-2.39;81.28;100171.03;4994406;28;8865;-59
2021/01/11 08:00:09;;;;;;;;;77.50;53.50;;;;;-2.16;80.83;100173.59;4994665;28;8876;-59
2021/01/11 08:02:37;;;;;;;;;54.00;45.00;;;;;-2.18;80.94;100177.13;4995526;28;8854;-58
2021/01/11 08:05:25;;;;;;;;;69.75;49.50;;;;;-1.94;81.15;100184.09;4994880;28;8849;-60
2021/01/11 08:08:08;;;;;;;;;66.00;44.00;;;;;-1.87;80.33;100185.78;4994787;28;8845;-58
2021/01/11 08:10:35;;;;;;;;;66.50;47.25;;;;;-1.68;80.17;100184.00;4993521;28;8868;-58
2021/01/11 08:13:09;;;;;;;;;64.25;44.50;;;;;-1.63;79.90;100191.00;4994465;28;8858;-58
2021/01/11 08:15:36;;;;;;;;;66.00;46.25;;;;;-1.60;79.71;100192.75;4993308;28;9574;-58
2021/01/11 08:18:04;;;;;;;;;44.50;31.25;;;;;-1.46;79.66;100195.31;4994838;28;8861;-58
2021/01/11 08:20:31;;;;;;;;;47.00;26.25;;;;;-1.37;78.35;100197.88;4994483;28;8877;-60
2021/01/11 08:23:08;;;;;;;;;51.75;37.25;;;;;-1.23;76.96;100196.06;4994720;28;8841;-59
2021/01/11 08:25:37;;;;;;;;;58.00;47.00;;;;;-1.10;77.32;100202.16;4994109;28;8834;-58
2021/01/11 08:28:05;;;;;;;;;49.00;38.50;;;;;-1.09;75.76;100195.97;4994547;28;8853;-58
2021/01/11 08:30:33;;;;;;;;;66.75;48.50;;;;;-0.94;76.21;100197.66;4993242;28;8857;-59
2021/01/11 08:33:07;;;;;;;;;48.50;37.00;;;;;-0.98;76.25;100203.81;4994349;28;8927;-59
2021/01/11 08:35:34;;;;;;;;;49.00;35.25;;;;;-0.69;76.38;100211.53;4994411;28;8880;-59
2021/01/11 08:38:02;;;;;;;;;61.00;45.00;;;;;-0.53;74.82;100210.50;4994562;28;8883;-59
2021/01/11 08:40:35;;;;;;;;;46.25;36.25;;;;;-0.46;74.77;100217.50;4993269;28;9003;-59
2021/01/11 08:43:13;;;;;;;;;65.50;46.75;;;;;-0.52;74.36;100222.84;5010807;28;8850;-59
2021/01/11 08:45:42;;;;;;;;;53.25;43.25;;;;;-0.32;74.56;100227.06;5029114;28;8961;-58
2021/01/11 08:48:14;;;;;;;;;49.00;36.50;;;;;-0.31;74.57;100227.06;5012876;28;8862;-59
2021/01/11 08:50:58;;;;;;;;;54.50;41.00;;;;;-0.35;73.98;100230.59;5028941;28;8823;-58
2021/01/11 08:53:41;;;;;;;;;62.25;39.50;;;;;-0.16;73.99;100241.84;5013773;28;8893;-60
2021/01/11 08:56:12;;;;;;;;;61.50;45.00;;;;;-0.02;73.27;100241.75;5013487;28;8839;-60
2021/01/11 08:58:52;;;;;;;;;64.25;44.50;;;;;-0.04;72.99;100238.25;5013743;28;8851;-60
2021/01/11 09:01:26;;;;;;;;;49.00;38.00;;;;;-0.05;72.61;100233.88;5013777;28;8982;-62
2021/01/11 09:03:55;;;;;;;;;65.50;46.50;;;;;0.21;73.45;100230.94;5013873;28;8953;-59
2021/01/11 09:06:43;;;;;;;;;69.50;48.50;;;;;0.28;72.30;100231.75;5013640;28;8893;-58
2021/01/11 09:09:13;;;;;;;;;67.50;47.00;;;;;0.40;71.97;100235.16;5013509;28;8847;-60
2021/01/11 09:11:44;;;;;;;;;56.25;40.00;;;;;0.41;72.61;100236.00;5012568;28;8846;-59
2021/01/11 09:14:17;;;;;;;;;55.75;42.25;;;;;0.30;71.50;100237.91;5012680;28;8835;-59
2021/01/11 09:16:46;;;;;;;;;51.00;35.00;;;;;0.35;70.67;100233.44;5013493;28;8831;-59
2021/01/11 09:19:16;;;;;;;;;55.75;43.25;;;;;0.42;71.59;100236.00;5013164;28;9565;-60
2021/01/11 09:21:56;;;;;;;;;58.75;47.75;;;;;0.80;73.27;100236.44;5028710;28;8937;-58
2021/01/11 09:24:23;;;;;;;;;48.75;38.75;;;;;0.74;72.27;100231.19;5013424;28;8854;-59
2021/01/11 09:26:52;;;;;;;;;115.00;91.75;;;;;0.68;70.81;100232.16;5016902;28;8965;-58
2021/01/11 09:29:20;;;;;;;;;68.00;50.25;;;;;0.82;70.48;100227.59;5032273;28;8847;-60
2021/01/11 09:31:48;;;;;;;;;65.00;48.50;;;;;0.95;72.16;100228.31;5017053;28;8881;-58
2021/01/11 09:34:16;;;;;;;;;42.25;35.25;;;;;0.87;69.83;100222.25;5016964;28;8835;-58
2021/01/11 09:36:45;;;;;;;;;64.00;48.25;;;;;1.01;71.24;100230.84;5032866;28;8883;-59
2021/01/11 09:39:15;;;;;;;;;62.50;46.25;;;;;0.75;70.67;100228.56;5017311;28;8851;-59
2021/01/11 09:41:47;;;;;;;;;59.50;43.75;;;;;0.93;72.05;100238.00;5017193;28;8888;-58
2021/01/11 09:44:16;;;;;;;;;58.50;46.25;;;;;0.84;70.79;100238.13;5017474;28;8843;-59
2021/01/11 09:46:47;;;;;;;;;51.50;36.75;;;;;0.53;71.02;100238.53;4999974;28;8917;-59
2021/01/11 09:49:15;;;;;;;;;65.25;46.50;;;;;0.53;71.06;100235.88;5017051;28;8839;-59
2021/01/11 09:51:42;;;;;;;;;57.50;35.75;;;;;0.58;71.74;100231.41;5016639;28;8854;-58
2021/01/11 09:54:09;;;;;;;;;47.50;38.75;;;;;0.54;70.88;100234.09;5016840;28;8982;-59
2021/01/11 09:56:39;;;;;;;;;47.75;39.00;;;;;0.57;70.95;100232.28;5016716;28;8846;-59
2021/01/11 09:59:07;;;;;;;;;48.00;37.75;;;;;0.59;71.60;100233.16;5016708;28;8894;-59
2021/01/11 10:01:41;;;;;;;;;57.50;38.25;;;;;0.59;70.97;100232.28;5016943;28;8855;-59
2021/01/11 10:04:10;;;;;;;;;57.75;41.75;;;;;0.59;70.81;100238.44;5016607;28;8847;-59
2021/01/11 10:07:05;;;;;;;;;46.75;40.25;;;;;0.66;72.15;100241.91;5016494;28;8954;-58
2021/01/11 10:09:33;;;;;;;;;58.25;36.75;;;;;0.74;71.24;100239.13;5016349;28;8985;-59
2021/01/11 10:12:04;;;;;;;;;64.25;45.50;;;;;0.67;70.81;100235.72;5031888;28;8839;-57
2021/01/11 10:14:32;;;;;;;;;70.25;49.75;;;;;0.69;70.87;100235.69;5015857;28;8941;-57
2021/01/11 10:17:00;;;;;;;;;51.75;36.50;;;;;0.84;70.55;100227.53;5016588;28;8961;-58
2021/01/11 10:19:29;;;;;;;;;63.25;45.00;;;;;0.98;70.02;100230.03;5016444;28;8862;-58
2021/01/11 10:22:02;;;;;;;;;64.75;43.50;;;;;0.89;69.87;100228.38;5016188;28;8869;-58
2021/01/11 10:24:29;;;;;;;;;56.75;38.00;;;;;0.91;71.06;100233.66;5031808;28;8893;-58
2021/01/11 10:26:56;;;;;;;;;61.75;46.00;;;;;0.97;71.57;100231.78;5016321;28;8945;-57
2021/01/11 10:29:25;;;;;;;;;61.00;46.25;;;;;1.41;72.42;100218.81;5016028;28;8922;-58
2021/01/11 10:31:54;;;;;;;;;49.75;39.50;;;;;1.17;70.86;100220.06;5016352;28;9658;-58
2021/01/11 10:34:22;;;;;;;;;58.00;41.75;;;;;1.73;71.62;100220.94;5031190;28;8855;-59
2021/01/11 10:36:52;;;;;;;;;49.50;34.25;;;;;1.37;69.23;100219.75;5014964;28;8859;-58
2021/01/11 10:39:25;;;;;;;;;57.50;42.50;;;;;1.51;67.26;100223.06;5016059;28;9009;-59
2021/01/11 10:41:55;;;;;;;;;47.50;41.50;;;;;1.61;66.42;100221.16;5016085;28;8843;-57
2021/01/11 10:44:27;;;;;;;;;62.25;47.00;;;;;1.46;66.80;100219.63;5015295;28;8846;-58
2021/01/11 10:47:01;;;;;;;;;45.00;35.75;;;;;1.68;64.83;100220.13;5014998;28;8835;-57
2021/01/11 10:49:30;;;;;;;;;39.00;29.50;;;;;1.60;66.38;100214.97;5016137;28;8933;-58
2021/01/11 10:51:57;;;;;;;;;53.50;40.50;;;;;1.75;65.00;100208.53;5031459;28;8861;-58
2021/01/11 10:54:25;;;;;;;;;42.50;31.50;;;;;1.58;63.35;100210.59;5015423;28;8855;-58
2021/01/11 10:56:53;;;;;;;;;37.25;23.75;;;;;1.60;63.51;100203.50;5014892;28;8847;-59
2021/01/11 10:59:21;;;;;;;;;50.00;38.50;;;;;1.77;63.51;100201.47;5015513;28;8855;-59
2021/01/11 11:01:51;;;;;;;;;33.50;28.50;;;;;1.89;63.71;100206.50;5015886;28;8953;-58
2021/01/11 11:04:21;;;;;;;;;36.50;28.75;;;;;2.05;60.18;100201.81;5015686;28;9154;-59
2021/01/11 11:06:48;;;;;;;;;36.50;24.75;;;;;1.89;60.63;100197.72;5015662;28;8871;-59
2021/01/11 11:09:15;;;;;;;;;26.75;21.00;;;;;1.96;59.04;100196.69;5015236;28;8961;-58
2021/01/11 11:11:42;;;;;;;;;31.75;22.00;;;;;2.25;58.33;100198.81;5015668;28;8831;-58
2021/01/11 11:14:09;;;;;;;;;33.75;27.75;;;;;2.21;60.85;100197.09;5015107;28;8877;-59
2021/01/11 11:16:38;;;;;;;;;44.50;35.25;;;;;2.54;60.71;100200.00;5030725;28;8834;-58
2021/01/11 11:19:06;;;;;;;;;34.50;23.50;;;;;1.75;59.41;100192.66;5015014;28;8890;-59
2021/01/11 11:21:33;;;;;;;;;36.25;30.75;;;;;2.08;59.49;100190.28;5014923;28;8835;-59
2021/01/11 11:24:15;;;;;;;;;26.00;22.00;;;;;1.79;59.94;100190.81;5014292;28;8859;-58
2021/01/11 11:26:43;;;;;;;;;74.25;58.00;;;;;1.89;59.42;100190.63;5015282;28;8915;-59
2021/01/11 11:29:10;;;;;;;;;104.00;72.00;;;;;2.05;59.11;100190.34;5015250;28;8870;-58
2021/01/11 11:31:41;;;;;;;;;28.50;24.00;;;;;1.82;59.32;100183.72;5015305;28;8855;-59
2021/01/11 11:34:08;;;;;;;;;30.25;27.25;;;;;2.17;59.61;100185.69;5030841;28;8905;-58
2021/01/11 11:36:36;;;;;;;;;59.75;39.75;;;;;1.84;60.33;100188.97;5014838;28;8846;-59
2021/01/11 11:39:03;;;;;;;;;190.00;143.00;;;;;2.03;61.64;100189.50;5014821;28;8847;-58